createdAt,value
2023-02-24T00:03:53.323Z,9.13
2023-02-24T00:07:56.480Z,9.11
2023-02-24T00:12:03.314Z,9.10
2023-02-24T00:16:07.238Z,9.07
2023-02-24T00:20:12.546Z,9.02
2023-02-24T00:24:15.597Z,8.98
2023-02-24T00:28:21.502Z,8.95
2023-02-24T00:32:24.754Z,8.94
2023-02-24T00:36:29.789Z,8.95
2023-02-24T00:40:37.186Z,8.95
2023-02-24T00:44:45.162Z,8.95
2023-02-24T00:48:49.286Z,8.89
2023-02-24T00:52:52.357Z,8.89
2023-02-24T00:56:57.088Z,8.88
2023-02-24T01:01:02.351Z,8.87
2023-02-24T01:05:06.171Z,8.80
2023-02-24T01:09:12.141Z,8.72
2023-02-24T01:13:15.125Z,8.64
2023-02-24T01:17:21.064Z,8.61
2023-02-24T01:21:25.150Z,8.61
2023-02-24T01:25:31.440Z,8.62
2023-02-24T01:29:39.274Z,8.62
2023-02-24T01:33:45.919Z,8.62
2023-02-24T01:37:49.292Z,8.62
2023-02-24T01:41:53.175Z,8.60
2023-02-24T01:45:57.716Z,8.60
2023-02-24T01:50:03.136Z,8.55
2023-02-24T01:54:10.029Z,8.54
2023-02-24T01:58:18.552Z,8.55
2023-02-24T02:02:23.944Z,8.52
2023-02-24T02:06:29.670Z,8.50
2023-02-24T02:10:33.955Z,8.50
2023-02-24T02:14:53.587Z,8.49
2023-02-24T02:19:07.668Z,8.49
2023-02-24T02:23:36.978Z,8.48
2023-02-24T02:28:12.908Z,8.43
2023-02-24T02:32:42.003Z,8.39
2023-02-24T02:36:59.149Z,8.39
2023-02-24T02:41:09.696Z,8.41
2023-02-24T02:45:19.008Z,8.41
2023-02-24T02:49:25.552Z,8.38
2023-02-24T02:53:37.482Z,8.33
2023-02-24T02:57:47.236Z,8.29
2023-02-24T03:01:55.505Z,8.24
2023-02-24T03:06:06.274Z,8.22
2023-02-24T03:10:20.855Z,8.18
2023-02-24T03:14:29.407Z,8.17
2023-02-24T03:18:34.567Z,8.14
2023-02-24T03:22:43.795Z,8.10
2023-02-24T03:26:53.478Z,8.07
2023-02-24T03:31:04.892Z,8.03
2023-02-24T03:35:15.134Z,7.96
2023-02-24T03:39:18.813Z,7.89
2023-02-24T03:43:40.369Z,7.81
2023-02-24T03:47:46.832Z,7.77
2023-02-24T03:51:59.717Z,7.75
2023-02-24T03:56:15.962Z,7.72
2023-02-24T04:00:34.338Z,7.68
2023-02-24T04:04:45.757Z,7.66
2023-02-24T04:09:13.197Z,7.66
2023-02-24T04:13:35.476Z,7.66
2023-02-24T04:17:50.149Z,7.65
2023-02-24T04:21:55.743Z,7.66
2023-02-24T04:26:03.101Z,7.63
2023-02-24T04:30:10.740Z,7.56
2023-02-24T04:34:20.035Z,7.58
2023-02-24T04:38:24.288Z,7.61
2023-02-24T04:42:27.989Z,7.63
2023-02-24T04:46:33.033Z,7.59
2023-02-24T04:50:38.390Z,7.55
2023-02-24T04:54:41.522Z,7.55
2023-02-24T04:58:46.398Z,7.58
2023-02-24T05:02:50.535Z,7.58
2023-02-24T05:06:57.395Z,7.59
2023-02-24T05:11:04.006Z,7.62
2023-02-24T05:15:09.071Z,7.61
2023-02-24T05:19:29.914Z,7.59
2023-02-24T05:23:36.428Z,7.55
2023-02-24T05:27:39.514Z,7.53
2023-02-24T05:31:42.752Z,7.48
2023-02-24T05:35:45.905Z,7.46
2023-02-24T05:39:50.387Z,7.47
2023-02-24T05:43:56.819Z,7.45
2023-02-24T05:47:59.816Z,7.41
2023-02-24T05:52:07.868Z,7.36
2023-02-24T05:56:12.888Z,7.30
2023-02-24T06:00:17.434Z,7.26
2023-02-24T06:04:39.265Z,7.22
2023-02-24T06:08:49.298Z,7.19
2023-02-24T06:12:55.182Z,7.17
2023-02-24T06:17:00.917Z,7.16
2023-02-24T06:21:04.715Z,7.16
2023-02-24T06:25:09.354Z,7.14
2023-02-24T06:29:15.651Z,7.15
2023-02-24T06:33:18.771Z,7.16
2023-02-24T06:37:22.973Z,7.17
2023-02-24T06:41:29.525Z,7.14
2023-02-24T06:45:33.955Z,7.15
2023-02-24T06:49:37.710Z,7.21
2023-02-24T06:53:43.234Z,7.25
2023-02-24T06:57:46.475Z,7.24
2023-02-24T07:01:50.917Z,7.22
2023-02-24T07:06:11.069Z,7.22
2023-02-24T07:10:14.585Z,7.21
2023-02-24T07:14:17.886Z,7.27
2023-02-24T07:18:22.657Z,7.33
2023-02-24T07:22:25.939Z,7.42
2023-02-24T07:26:30.392Z,7.48
2023-02-24T07:30:34.409Z,7.53
2023-02-24T07:34:40.447Z,7.61
2023-02-24T07:38:44.157Z,7.73
2023-02-24T07:42:47.859Z,7.83
2023-02-24T07:46:52.723Z,7.92
2023-02-24T07:50:59.461Z,8.02
2023-02-24T07:55:03.014Z,8.12
2023-02-24T07:59:09.787Z,8.27
2023-02-24T08:03:13.635Z,8.38
2023-02-24T08:07:24.294Z,8.47
2023-02-24T08:11:35.645Z,8.62
2023-02-24T08:15:38.731Z,8.76
2023-02-24T08:19:42.816Z,8.90
2023-02-24T08:23:47.838Z,9.05
2023-02-24T08:28:12.526Z,9.20
2023-02-24T08:32:18.460Z,9.30
2023-02-24T08:36:26.111Z,9.44
2023-02-24T08:40:50.211Z,9.57
2023-02-24T08:44:53.829Z,9.72
2023-02-24T08:49:00.694Z,9.86
2023-02-24T08:53:03.862Z,10.00
2023-02-24T08:57:09.096Z,10.12
2023-02-24T09:01:20.106Z,10.21
2023-02-24T09:05:25.280Z,10.28
2023-02-24T09:09:28.373Z,10.33
2023-02-24T09:13:33.926Z,10.38
2023-02-24T09:17:50.104Z,10.47
2023-02-24T09:22:21.298Z,10.53
2023-02-24T09:26:24.776Z,10.61
2023-02-24T09:30:51.019Z,10.70
2023-02-24T09:34:54.377Z,10.77
2023-02-24T09:39:14.580Z,10.83
2023-02-24T09:43:21.791Z,10.88
2023-02-24T09:47:40.756Z,10.97
2023-02-24T09:51:44.473Z,11.08
2023-02-24T09:56:03.810Z,11.20
2023-02-24T10:00:25.815Z,11.33
2023-02-24T10:04:49.408Z,11.51
2023-02-24T10:08:58.447Z,11.65
2023-02-24T10:13:14.844Z,11.76
2023-02-24T10:17:30.780Z,11.89
2023-02-24T10:21:49.747Z,11.98
2023-02-24T10:25:56.606Z,11.99
2023-02-24T10:30:11.370Z,12.04
2023-02-24T10:34:21.140Z,12.16
2023-02-24T10:38:28.698Z,12.30
2023-02-24T10:42:34.490Z,12.47
2023-02-24T10:46:41.890Z,12.65
2023-02-24T10:50:55.966Z,12.80
2023-02-24T10:55:08.682Z,12.86
2023-02-24T10:59:32.963Z,12.94
2023-02-24T11:03:42.190Z,13.06
2023-02-24T11:07:53.656Z,13.19
2023-02-24T11:12:18.483Z,13.21
2023-02-24T11:16:38.776Z,13.25
2023-02-24T11:20:49.745Z,13.31
2023-02-24T11:24:54.364Z,13.30
2023-02-24T11:29:10.973Z,13.32
2023-02-24T11:33:25.478Z,13.34
2023-02-24T11:37:38.284Z,13.38
2023-02-24T11:41:46.364Z,13.46
2023-02-24T11:45:55.397Z,13.51
2023-02-24T11:50:07.176Z,13.56
2023-02-24T11:54:14.253Z,13.62
2023-02-24T11:58:24.849Z,13.70
2023-02-24T12:02:39.729Z,13.74
2023-02-24T12:06:49.307Z,13.79
2023-02-24T12:10:57.766Z,13.84
2023-02-24T12:15:04.840Z,13.86
2023-02-24T12:19:20.063Z,13.88
2023-02-24T12:23:27.181Z,13.96
2023-02-24T12:27:42.300Z,14.02
2023-02-24T12:31:54.477Z,14.07
2023-02-24T12:36:06.074Z,14.07
2023-02-24T12:40:22.569Z,14.07
2023-02-24T12:44:38.220Z,14.06
2023-02-24T12:49:00.980Z,14.09
2023-02-24T12:53:16.287Z,14.00
2023-02-24T12:57:28.093Z,13.92
2023-02-24T13:01:37.963Z,13.84
2023-02-24T13:05:47.463Z,13.74
2023-02-24T13:10:01.697Z,13.68
2023-02-24T13:14:13.514Z,13.63
2023-02-24T13:18:25.088Z,13.67
2023-02-24T13:22:31.472Z,13.66
2023-02-24T13:26:35.887Z,13.67
2023-02-24T13:30:42.066Z,13.68
2023-02-24T13:34:46.314Z,13.68
2023-02-24T13:38:51.219Z,13.66
2023-02-24T13:43:01.667Z,13.68
2023-02-24T13:47:40.466Z,13.69
2023-02-24T13:52:04.940Z,13.73
2023-02-24T13:56:23.128Z,13.78
2023-02-24T14:00:50.880Z,13.77
2023-02-24T14:04:56.726Z,13.72
2023-02-24T14:09:03.599Z,13.70
2023-02-24T14:13:09.609Z,13.68
2023-02-24T14:17:25.332Z,13.63
2023-02-24T14:21:30.772Z,13.63
2023-02-24T14:25:39.103Z,13.66
2023-02-24T14:29:44.329Z,13.63
2023-02-24T14:33:58.074Z,13.57
2023-02-24T14:38:02.329Z,13.49
2023-02-24T14:42:13.475Z,13.38
2023-02-24T14:46:17.398Z,13.30
2023-02-24T14:50:26.464Z,13.22
2023-02-24T14:54:43.090Z,13.18
2023-02-24T14:58:50.907Z,13.14
2023-02-24T15:03:03.367Z,13.13
2023-02-24T15:07:17.433Z,13.11
2023-02-24T15:11:23.834Z,13.13
2023-02-24T15:15:29.560Z,13.09
2023-02-24T15:19:36.074Z,13.06
2023-02-24T15:23:40.509Z,13.02
2023-02-24T15:27:52.352Z,13.00
2023-02-24T15:31:57.077Z,12.98
2023-02-24T15:36:01.271Z,12.98
2023-02-24T15:40:09.305Z,12.96
2023-02-24T15:44:29.408Z,12.96
2023-02-24T15:48:32.397Z,12.89
2023-02-24T15:52:37.670Z,12.86
2023-02-24T15:56:43.444Z,12.81
2023-02-24T16:00:46.880Z,12.76
2023-02-24T16:04:50.760Z,12.72
2023-02-24T16:08:57.114Z,12.69
2023-02-24T16:13:03.446Z,12.69
2023-02-24T16:17:10.049Z,12.69
2023-02-24T16:21:13.918Z,12.70
2023-02-24T16:25:17.697Z,12.74
2023-02-24T16:29:22.095Z,12.75
2023-02-24T16:33:25.246Z,12.71
2023-02-24T16:37:30.518Z,12.66
2023-02-24T16:41:33.600Z,12.64
2023-02-24T16:45:38.550Z,12.62
2023-02-24T16:49:42.388Z,12.60
2023-02-24T16:53:45.426Z,12.59
2023-02-24T16:57:48.659Z,12.58
2023-02-24T17:01:53.532Z,12.57
2023-02-24T17:05:57.800Z,12.49
2023-02-24T17:10:00.999Z,12.41
2023-02-24T17:14:04.664Z,12.33
2023-02-24T17:18:09.935Z,12.29
2023-02-24T17:22:13.025Z,12.26
2023-02-24T17:26:16.676Z,12.26
2023-02-24T17:30:23.142Z,12.23
2023-02-24T17:34:27.464Z,12.20
2023-02-24T17:38:30.552Z,12.15
2023-02-24T17:42:33.800Z,12.15
2023-02-24T17:46:37.019Z,12.10
2023-02-24T17:50:44.671Z,12.06
2023-02-24T17:54:47.730Z,12.02
2023-02-24T17:58:50.811Z,11.97
2023-02-24T18:02:54.592Z,11.92
2023-02-24T18:06:59.020Z,11.89
2023-02-24T18:11:02.386Z,11.86
2023-02-24T18:15:09.356Z,11.86
2023-02-24T18:19:12.883Z,11.85
2023-02-24T18:23:17.364Z,11.84
2023-02-24T18:27:22.333Z,11.81
2023-02-24T18:31:26.959Z,11.80
2023-02-24T18:35:31.379Z,11.77
2023-02-24T18:39:35.813Z,11.73
2023-02-24T18:43:39.524Z,11.71
2023-02-24T18:47:42.623Z,11.69
2023-02-24T18:51:48.785Z,11.66
2023-02-24T18:55:59.873Z,11.65
2023-02-24T19:00:03.834Z,11.61
2023-02-24T19:04:08.640Z,11.56
2023-02-24T19:08:11.797Z,11.53
2023-02-24T19:12:17.133Z,11.51
2023-02-24T19:16:21.288Z,11.51
2023-02-24T19:20:24.560Z,11.50
2023-02-24T19:24:28.103Z,11.50
2023-02-24T19:28:32.440Z,11.49
2023-02-24T19:32:35.623Z,11.47
2023-02-24T19:36:39.104Z,11.40
2023-02-24T19:40:42.270Z,11.36
2023-02-24T19:44:46.655Z,11.33
2023-02-24T19:48:50.011Z,11.30
2023-02-24T19:52:52.988Z,11.24
2023-02-24T19:56:57.932Z,11.23
2023-02-24T20:01:09.266Z,11.22
2023-02-24T20:05:12.425Z,11.13
2023-02-24T20:09:17.869Z,11.00
2023-02-24T20:13:20.945Z,10.89
2023-02-24T20:17:25.746Z,10.74
2023-02-24T20:21:29.342Z,10.66
2023-02-24T20:25:32.387Z,10.62
2023-02-24T20:29:36.385Z,10.58
2023-02-24T20:33:42.535Z,10.51
2023-02-24T20:37:45.601Z,10.49
2023-02-24T20:41:50.995Z,10.46
2023-02-24T20:45:54.285Z,10.43
2023-02-24T20:49:58.954Z,10.40
2023-02-24T20:54:02.095Z,10.37
2023-02-24T20:58:05.105Z,10.36
2023-02-24T21:02:09.748Z,10.30
2023-02-24T21:06:15.577Z,10.32
2023-02-24T21:10:19.444Z,10.28
2023-02-24T21:14:22.999Z,10.25
2023-02-24T21:18:26.424Z,10.22
2023-02-24T21:22:31.286Z,10.18
2023-02-24T21:26:34.330Z,10.12
2023-02-24T21:30:37.295Z,9.98
2023-02-24T21:34:40.470Z,9.88
2023-02-24T21:38:46.931Z,9.82
2023-02-24T21:42:50.024Z,9.75
2023-02-24T21:46:53.107Z,9.72
2023-02-24T21:51:00.045Z,9.71
2023-02-24T21:55:05.494Z,9.72
2023-02-24T21:59:11.293Z,9.70
2023-02-24T22:03:14.309Z,9.69
2023-02-24T22:07:17.515Z,9.66
2023-02-24T22:11:22.670Z,9.66
2023-02-24T22:15:25.753Z,9.68
2023-02-24T22:19:29.072Z,9.68
2023-02-24T22:23:32.147Z,9.69
2023-02-24T22:27:36.602Z,9.72
2023-02-24T22:31:43.554Z,9.74
2023-02-24T22:35:46.868Z,9.74
2023-02-24T22:39:49.944Z,9.75
2023-02-24T22:43:54.751Z,9.75
2023-02-24T22:47:59.427Z,9.77
2023-02-24T22:52:02.453Z,9.75
2023-02-24T23:00:35.503Z,9.75
2023-02-24T23:04:38.614Z,9.72
2023-02-24T23:08:43.668Z,9.73
2023-02-24T23:12:51.455Z,9.73
2023-02-24T23:16:56.338Z,9.73
2023-02-24T23:21:01.007Z,9.72
2023-02-24T23:25:04.041Z,9.68
2023-02-24T23:29:08.217Z,9.65
2023-02-24T23:33:12.598Z,9.62
2023-02-24T23:37:16.744Z,9.59
2023-02-24T23:41:19.928Z,9.58
2023-02-24T23:45:24.203Z,9.54
2023-02-24T23:49:42.437Z,9.49
2023-02-24T23:53:49.743Z,9.45
2023-02-24T23:57:52.748Z,9.40
